sensor_id;sensor_type;location;lat;lon;timestamp;temperature;humidity
25468;DHT22;13384;24.794;110.498;2022-09-16T00:02:11;27.00;94.40
25468;DHT22;13384;24.794;110.498;2022-09-16T00:04:44;27.00;94.20
25468;DHT22;13384;24.794;110.498;2022-09-16T00:07:20;27.00;94.20
25468;DHT22;13384;24.794;110.498;2022-09-16T00:09:51;27.00;94.50
25468;DHT22;13384;24.794;110.498;2022-09-16T00:12:35;27.00;94.10
25468;DHT22;13384;24.794;110.498;2022-09-16T00:15:07;27.00;94.40
25468;DHT22;13384;24.794;110.498;2022-09-16T00:17:38;27.00;94.30
25468;DHT22;13384;24.794;110.498;2022-09-16T00:20:10;27.00;94.20
25468;DHT22;13384;24.794;110.498;2022-09-16T00:23:04;27.10;94.40
25468;DHT22;13384;24.794;110.498;2022-09-16T00:25:39;27.10;94.50
25468;DHT22;13384;24.794;110.498;2022-09-16T00:28:10;27.10;94.50
25468;DHT22;13384;24.794;110.498;2022-09-16T00:30:41;27.10;94.70
25468;DHT22;13384;24.794;110.498;2022-09-16T00:33:14;27.10;94.40
25468;DHT22;13384;24.794;110.498;2022-09-16T00:35:46;27.10;94.40
25468;DHT22;13384;24.794;110.498;2022-09-16T00:38:41;27.10;95.00
25468;DHT22;13384;24.794;110.498;2022-09-16T00:41:19;27.10;96.30
25468;DHT22;13384;24.794;110.498;2022-09-16T00:43:57;27.10;96.20
25468;DHT22;13384;24.794;110.498;2022-09-16T00:46:37;27.10;94.40
25468;DHT22;13384;24.794;110.498;2022-09-16T00:49:21;27.10;93.80
25468;DHT22;13384;24.794;110.498;2022-09-16T00:51:57;27.10;95.20
25468;DHT22;13384;24.794;110.498;2022-09-16T00:54:34;27.20;96.20
25468;DHT22;13384;24.794;110.498;2022-09-16T00:57:06;27.20;97.20
25468;DHT22;13384;24.794;110.498;2022-09-16T00:59:42;27.10;96.40
25468;DHT22;13384;24.794;110.498;2022-09-16T01:02:18;27.10;96.20
25468;DHT22;13384;24.794;110.498;2022-09-16T01:05:15;27.10;95.20
25468;DHT22;13384;24.794;110.498;2022-09-16T01:07:51;27.10;95.20
25468;DHT22;13384;24.794;110.498;2022-09-16T01:10:25;27.10;95.40
25468;DHT22;13384;24.794;110.498;2022-09-16T01:13:04;27.10;95.50
25468;DHT22;13384;24.794;110.498;2022-09-16T01:25:05;27.10;95.10
25468;DHT22;13384;24.794;110.498;2022-09-16T01:27:50;27.10;95.60
25468;DHT22;13384;24.794;110.498;2022-09-16T01:36:07;27.10;95.20
25468;DHT22;13384;24.794;110.498;2022-09-16T01:47:55;27.20;95.20
25468;DHT22;13384;24.794;110.498;2022-09-16T01:54:21;27.20;95.50
25468;DHT22;13384;24.794;110.498;2022-09-16T02:00:15;27.20;95.20
25468;DHT22;13384;24.794;110.498;2022-09-16T02:06:07;27.20;94.80
25468;DHT22;13384;24.794;110.498;2022-09-16T02:11:24;27.20;94.70
25468;DHT22;13384;24.794;110.498;2022-09-16T02:14:25;27.20;94.70
25468;DHT22;13384;24.794;110.498;2022-09-16T02:17:03;27.20;94.50
25468;DHT22;13384;24.794;110.498;2022-09-16T02:20:07;27.20;94.50
25468;DHT22;13384;24.794;110.498;2022-09-16T02:23:06;27.20;94.40
25468;DHT22;13384;24.794;110.498;2022-09-16T02:25:44;27.20;94.40
25468;DHT22;13384;24.794;110.498;2022-09-16T02:28:28;27.20;94.40
25468;DHT22;13384;24.794;110.498;2022-09-16T02:31:18;27.20;94.70
25468;DHT22;13384;24.794;110.498;2022-09-16T02:33:53;27.20;94.30
25468;DHT22;13384;24.794;110.498;2022-09-16T02:36:28;27.20;94.40
25468;DHT22;13384;24.794;110.498;2022-09-16T02:39:26;27.30;94.40
25468;DHT22;13384;24.794;110.498;2022-09-16T02:42:01;27.30;94.40
25468;DHT22;13384;24.794;110.498;2022-09-16T02:44:55;27.30;94.40
25468;DHT22;13384;24.794;110.498;2022-09-16T02:50:39;27.30;94.40
25468;DHT22;13384;24.794;110.498;2022-09-16T02:53:42;27.30;94.30
25468;DHT22;13384;24.794;110.498;2022-09-16T02:56:33;27.30;94.50
25468;DHT22;13384;24.794;110.498;2022-09-16T02:59:07;27.30;94.50
25468;DHT22;13384;24.794;110.498;2022-09-16T03:01:43;27.30;94.50
25468;DHT22;13384;24.794;110.498;2022-09-16T03:04:19;27.30;94.40
25468;DHT22;13384;24.794;110.498;2022-09-16T03:06:51;27.30;94.40
25468;DHT22;13384;24.794;110.498;2022-09-16T03:09:25;27.30;94.40
25468;DHT22;13384;24.794;110.498;2022-09-16T03:12:42;27.30;94.40
25468;DHT22;13384;24.794;110.498;2022-09-16T03:18:50;27.30;94.40
25468;DHT22;13384;24.794;110.498;2022-09-16T03:29:35;27.30;94.40
25468;DHT22;13384;24.794;110.498;2022-09-16T03:32:24;27.30;94.40
25468;DHT22;13384;24.794;110.498;2022-09-16T03:35:11;27.30;94.40
25468;DHT22;13384;24.794;110.498;2022-09-16T03:38:06;27.30;94.40
25468;DHT22;13384;24.794;110.498;2022-09-16T03:40:40;27.30;94.50
25468;DHT22;13384;24.794;110.498;2022-09-16T03:43:18;27.30;94.40
25468;DHT22;13384;24.794;110.498;2022-09-16T03:48:48;27.30;94.30
25468;DHT22;13384;24.794;110.498;2022-09-16T03:51:20;27.30;94.30
25468;DHT22;13384;24.794;110.498;2022-09-16T03:53:53;27.30;94.30
25468;DHT22;13384;24.794;110.498;2022-09-16T03:56:26;27.30;94.30
25468;DHT22;13384;24.794;110.498;2022-09-16T03:58:57;27.30;94.30
25468;DHT22;13384;24.794;110.498;2022-09-16T04:01:29;27.30;94.20
25468;DHT22;13384;24.794;110.498;2022-09-16T04:04:01;27.30;94.40
25468;DHT22;13384;24.794;110.498;2022-09-16T04:06:44;27.30;94.40
25468;DHT22;13384;24.794;110.498;2022-09-16T04:09:16;27.30;94.40
25468;DHT22;13384;24.794;110.498;2022-09-16T04:11:48;27.30;94.20
25468;DHT22;13384;24.794;110.498;2022-09-16T04:14:20;27.30;94.30
25468;DHT22;13384;24.794;110.498;2022-09-16T04:16:54;27.30;94.30
25468;DHT22;13384;24.794;110.498;2022-09-16T04:19:26;27.30;94.10
25468;DHT22;13384;24.794;110.498;2022-09-16T04:22:20;27.30;94.10
25468;DHT22;13384;24.794;110.498;2022-09-16T04:25:13;27.30;94.20
25468;DHT22;13384;24.794;110.498;2022-09-16T04:28:06;27.30;94.10
25468;DHT22;13384;24.794;110.498;2022-09-16T04:31:14;27.30;94.20
25468;DHT22;13384;24.794;110.498;2022-09-16T04:33:48;27.30;94.10
25468;DHT22;13384;24.794;110.498;2022-09-16T04:36:21;27.30;94.20
25468;DHT22;13384;24.794;110.498;2022-09-16T04:39:13;27.30;94.10
25468;DHT22;13384;24.794;110.498;2022-09-16T04:42:06;27.40;94.10
25468;DHT22;13384;24.794;110.498;2022-09-16T04:44:43;27.30;94.00
25468;DHT22;13384;24.794;110.498;2022-09-16T04:47:15;27.40;94.20
25468;DHT22;13384;24.794;110.498;2022-09-16T04:50:07;27.40;94.10
25468;DHT22;13384;24.794;110.498;2022-09-16T04:53:01;27.40;94.00
25468;DHT22;13384;24.794;110.498;2022-09-16T04:55:33;27.40;94.10
25468;DHT22;13384;24.794;110.498;2022-09-16T04:58:05;27.40;94.10
25468;DHT22;13384;24.794;110.498;2022-09-16T05:00:50;27.40;94.00
25468;DHT22;13384;24.794;110.498;2022-09-16T05:03:22;27.40;94.00
25468;DHT22;13384;24.794;110.498;2022-09-16T05:06:02;27.40;94.10
25468;DHT22;13384;24.794;110.498;2022-09-16T05:08:34;27.40;94.10
25468;DHT22;13384;24.794;110.498;2022-09-16T05:11:11;27.40;93.90
25468;DHT22;13384;24.794;110.498;2022-09-16T05:13:44;27.40;93.90
25468;DHT22;13384;24.794;110.498;2022-09-16T05:16:23;27.40;93.90
25468;DHT22;13384;24.794;110.498;2022-09-16T05:19:35;27.40;93.80
25468;DHT22;13384;24.794;110.498;2022-09-16T05:22:08;27.40;94.00
25468;DHT22;13384;24.794;110.498;2022-09-16T05:25:17;27.40;93.90
25468;DHT22;13384;24.794;110.498;2022-09-16T05:27:51;27.40;94.10
25468;DHT22;13384;24.794;110.498;2022-09-16T05:30:49;27.40;93.90
25468;DHT22;13384;24.794;110.498;2022-09-16T05:33:46;27.50;93.80
25468;DHT22;13384;24.794;110.498;2022-09-16T05:36:30;27.50;93.90
25468;DHT22;13384;24.794;110.498;2022-09-16T05:39:03;27.50;93.90
25468;DHT22;13384;24.794;110.498;2022-09-16T05:41:59;27.40;93.80
25468;DHT22;13384;24.794;110.498;2022-09-16T05:44:31;27.50;93.80
25468;DHT22;13384;24.794;110.498;2022-09-16T05:47:04;27.50;93.90
25468;DHT22;13384;24.794;110.498;2022-09-16T05:49:35;27.50;93.90
25468;DHT22;13384;24.794;110.498;2022-09-16T05:52:29;27.50;93.80
25468;DHT22;13384;24.794;110.498;2022-09-16T05:55:09;27.50;93.80
25468;DHT22;13384;24.794;110.498;2022-09-16T05:57:43;27.50;93.80
25468;DHT22;13384;24.794;110.498;2022-09-16T06:00:16;27.50;93.70
25468;DHT22;13384;24.794;110.498;2022-09-16T06:02:50;27.50;93.80
25468;DHT22;13384;24.794;110.498;2022-09-16T06:05:24;27.50;93.90
25468;DHT22;13384;24.794;110.498;2022-09-16T06:07:56;27.50;93.90
25468;DHT22;13384;24.794;110.498;2022-09-16T06:10:30;27.50;93.70
25468;DHT22;13384;24.794;110.498;2022-09-16T06:13:09;27.50;93.80
25468;DHT22;13384;24.794;110.498;2022-09-16T06:15:51;27.50;93.90
25468;DHT22;13384;24.794;110.498;2022-09-16T06:18:44;27.50;93.90
25468;DHT22;13384;24.794;110.498;2022-09-16T06:21:24;27.50;93.90
25468;DHT22;13384;24.794;110.498;2022-09-16T06:24:17;27.60;94.00
25468;DHT22;13384;24.794;110.498;2022-09-16T06:26:50;27.50;93.90
25468;DHT22;13384;24.794;110.498;2022-09-16T06:29:22;27.50;93.80
25468;DHT22;13384;24.794;110.498;2022-09-16T06:31:54;27.50;93.80
25468;DHT22;13384;24.794;110.498;2022-09-16T06:34:27;27.50;94.00
25468;DHT22;13384;24.794;110.498;2022-09-16T06:37:00;27.50;93.90
25468;DHT22;13384;24.794;110.498;2022-09-16T06:39:32;27.50;93.80
25468;DHT22;13384;24.794;110.498;2022-09-16T06:42:07;27.50;93.80
25468;DHT22;13384;24.794;110.498;2022-09-16T06:44:41;27.50;94.30
25468;DHT22;13384;24.794;110.498;2022-09-16T06:47:13;27.50;93.80
25468;DHT22;13384;24.794;110.498;2022-09-16T06:49:45;27.50;93.70
25468;DHT22;13384;24.794;110.498;2022-09-16T06:52:17;27.50;93.80
25468;DHT22;13384;24.794;110.498;2022-09-16T06:54:49;27.60;93.90
25468;DHT22;13384;24.794;110.498;2022-09-16T06:57:22;27.60;94.00
25468;DHT22;13384;24.794;110.498;2022-09-16T06:59:54;27.60;94.00
25468;DHT22;13384;24.794;110.498;2022-09-16T07:02:26;27.60;94.10
25468;DHT22;13384;24.794;110.498;2022-09-16T07:05:01;27.60;93.70
25468;DHT22;13384;24.794;110.498;2022-09-16T07:07:53;27.60;93.70
25468;DHT22;13384;24.794;110.498;2022-09-16T07:10:57;27.60;93.90
25468;DHT22;13384;24.794;110.498;2022-09-16T07:13:32;27.60;93.80
25468;DHT22;13384;24.794;110.498;2022-09-16T07:16:22;27.60;93.70
25468;DHT22;13384;24.794;110.498;2022-09-16T07:18:57;27.60;93.70
25468;DHT22;13384;24.794;110.498;2022-09-16T07:21:32;27.60;93.90
25468;DHT22;13384;24.794;110.498;2022-09-16T07:24:04;27.60;93.70
25468;DHT22;13384;24.794;110.498;2022-09-16T07:26:36;27.60;93.80
25468;DHT22;13384;24.794;110.498;2022-09-16T07:29:11;27.60;93.60
25468;DHT22;13384;24.794;110.498;2022-09-16T07:31:46;27.60;93.60
25468;DHT22;13384;24.794;110.498;2022-09-16T07:34:19;27.70;93.60
25468;DHT22;13384;24.794;110.498;2022-09-16T07:36:51;27.70;93.70
25468;DHT22;13384;24.794;110.498;2022-09-16T07:39:22;27.60;93.80
25468;DHT22;13384;24.794;110.498;2022-09-16T07:41:55;27.60;93.80
25468;DHT22;13384;24.794;110.498;2022-09-16T07:44:33;27.60;94.00
25468;DHT22;13384;24.794;110.498;2022-09-16T07:47:04;27.60;93.80
25468;DHT22;13384;24.794;110.498;2022-09-16T07:49:36;27.60;93.80
25468;DHT22;13384;24.794;110.498;2022-09-16T07:52:09;27.60;93.80
25468;DHT22;13384;24.794;110.498;2022-09-16T07:54:39;27.60;93.90
25468;DHT22;13384;24.794;110.498;2022-09-16T07:57:12;27.60;93.90
25468;DHT22;13384;24.794;110.498;2022-09-16T07:59:49;27.60;94.00
25468;DHT22;13384;24.794;110.498;2022-09-16T08:02:20;27.60;93.70
25468;DHT22;13384;24.794;110.498;2022-09-16T08:04:51;27.60;93.70
25468;DHT22;13384;24.794;110.498;2022-09-16T08:07:23;27.70;93.70
25468;DHT22;13384;24.794;110.498;2022-09-16T08:10:21;27.70;93.70
25468;DHT22;13384;24.794;110.498;2022-09-16T08:12:54;27.70;93.80
25468;DHT22;13384;24.794;110.498;2022-09-16T08:15:25;27.60;94.00
25468;DHT22;13384;24.794;110.498;2022-09-16T08:17:56;27.60;93.80
25468;DHT22;13384;24.794;110.498;2022-09-16T08:20:29;27.70;94.00
25468;DHT22;13384;24.794;110.498;2022-09-16T08:23:00;27.70;93.90
25468;DHT22;13384;24.794;110.498;2022-09-16T08:25:57;27.70;94.10
25468;DHT22;13384;24.794;110.498;2022-09-16T08:28:29;27.60;93.80
25468;DHT22;13384;24.794;110.498;2022-09-16T08:31:20;27.70;94.10
25468;DHT22;13384;24.794;110.498;2022-09-16T08:33:51;27.70;93.80
25468;DHT22;13384;24.794;110.498;2022-09-16T08:36:24;27.70;94.10
25468;DHT22;13384;24.794;110.498;2022-09-16T08:38:55;27.60;94.00
25468;DHT22;13384;24.794;110.498;2022-09-16T08:47:41;27.70;94.10
25468;DHT22;13384;24.794;110.498;2022-09-16T08:50:17;27.60;93.90
25468;DHT22;13384;24.794;110.498;2022-09-16T08:52:50;27.70;93.90
25468;DHT22;13384;24.794;110.498;2022-09-16T08:55:38;27.70;94.10
25468;DHT22;13384;24.794;110.498;2022-09-16T08:58:19;27.70;93.80
25468;DHT22;13384;24.794;110.498;2022-09-16T09:00:57;27.70;93.80
25468;DHT22;13384;24.794;110.498;2022-09-16T09:03:40;27.70;93.80
25468;DHT22;13384;24.794;110.498;2022-09-16T09:18:30;27.70;93.80
25468;DHT22;13384;24.794;110.498;2022-09-16T09:27:30;27.70;93.80
25468;DHT22;13384;24.794;110.498;2022-09-16T09:30:16;27.70;93.80
25468;DHT22;13384;24.794;110.498;2022-09-16T09:39:11;27.70;93.70
25468;DHT22;13384;24.794;110.498;2022-09-16T09:44:49;27.70;93.70
25468;DHT22;13384;24.794;110.498;2022-09-16T09:47:45;27.70;93.80
25468;DHT22;13384;24.794;110.498;2022-09-16T09:50:22;27.70;93.80
25468;DHT22;13384;24.794;110.498;2022-09-16T09:56:34;27.70;93.90
25468;DHT22;13384;24.794;110.498;2022-09-16T10:02:13;27.70;93.90
25468;DHT22;13384;24.794;110.498;2022-09-16T10:04:46;27.70;93.80
25468;DHT22;13384;24.794;110.498;2022-09-16T10:07:22;27.70;93.80
25468;DHT22;13384;24.794;110.498;2022-09-16T10:09:58;27.70;93.90
25468;DHT22;13384;24.794;110.498;2022-09-16T10:12:33;27.70;93.90
25468;DHT22;13384;24.794;110.498;2022-09-16T10:15:04;27.70;93.90
25468;DHT22;13384;24.794;110.498;2022-09-16T10:17:36;27.70;93.90
25468;DHT22;13384;24.794;110.498;2022-09-16T10:20:37;27.70;93.90
25468;DHT22;13384;24.794;110.498;2022-09-16T10:23:14;27.70;93.90
25468;DHT22;13384;24.794;110.498;2022-09-16T10:25:46;27.60;93.80
25468;DHT22;13384;24.794;110.498;2022-09-16T10:28:36;27.70;93.90
25468;DHT22;13384;24.794;110.498;2022-09-16T10:31:09;27.70;93.90
25468;DHT22;13384;24.794;110.498;2022-09-16T10:33:43;27.70;93.90
25468;DHT22;13384;24.794;110.498;2022-09-16T10:36:22;27.60;93.80
25468;DHT22;13384;24.794;110.498;2022-09-16T10:38:59;27.70;93.90
25468;DHT22;13384;24.794;110.498;2022-09-16T10:41:41;27.70;93.90
25468;DHT22;13384;24.794;110.498;2022-09-16T10:47:04;27.70;93.80
25468;DHT22;13384;24.794;110.498;2022-09-16T10:52:23;27.60;93.80
25468;DHT22;13384;24.794;110.498;2022-09-16T10:54:55;27.70;93.80
25468;DHT22;13384;24.794;110.498;2022-09-16T10:57:32;27.70;93.80
25468;DHT22;13384;24.794;110.498;2022-09-16T11:00:24;27.70;93.70
25468;DHT22;13384;24.794;110.498;2022-09-16T11:20:47;27.70;93.70
25468;DHT22;13384;24.794;110.498;2022-09-16T11:23:46;27.60;93.70
25468;DHT22;13384;24.794;110.498;2022-09-16T11:27:10;27.70;93.70
25468;DHT22;13384;24.794;110.498;2022-09-16T11:35:41;27.70;93.70
25468;DHT22;13384;24.794;110.498;2022-09-16T11:39:01;27.60;93.60
25468;DHT22;13384;24.794;110.498;2022-09-16T11:41:40;27.70;93.60
25468;DHT22;13384;24.794;110.498;2022-09-16T11:50:06;27.70;93.60
25468;DHT22;13384;24.794;110.498;2022-09-16T11:52:52;27.70;93.50
25468;DHT22;13384;24.794;110.498;2022-09-16T11:59:21;27.70;93.50
25468;DHT22;13384;24.794;110.498;2022-09-16T12:08:19;27.70;93.50
25468;DHT22;13384;24.794;110.498;2022-09-16T12:11:04;27.70;93.60
25468;DHT22;13384;24.794;110.498;2022-09-16T12:13:44;27.70;93.80
25468;DHT22;13384;24.794;110.498;2022-09-16T12:16:47;27.70;93.80
25468;DHT22;13384;24.794;110.498;2022-09-16T12:19:28;27.70;93.80
25468;DHT22;13384;24.794;110.498;2022-09-16T12:22:30;27.60;93.90
25468;DHT22;13384;24.794;110.498;2022-09-16T12:30:24;27.70;93.90
25468;DHT22;13384;24.794;110.498;2022-09-16T12:38:21;27.70;94.00
25468;DHT22;13384;24.794;110.498;2022-09-16T12:47:18;27.70;94.10
25468;DHT22;13384;24.794;110.498;2022-09-16T12:57:48;27.70;94.20
25468;DHT22;13384;24.794;110.498;2022-09-16T13:03:39;27.70;94.30
25468;DHT22;13384;24.794;110.498;2022-09-16T13:06:31;27.60;94.20
25468;DHT22;13384;24.794;110.498;2022-09-16T13:12:02;27.60;94.30
25468;DHT22;13384;24.794;110.498;2022-09-16T13:15:34;27.70;94.40
25468;DHT22;13384;24.794;110.498;2022-09-16T13:18:37;27.60;94.30
25468;DHT22;13384;24.794;110.498;2022-09-16T13:21:23;27.70;94.40
25468;DHT22;13384;24.794;110.498;2022-09-16T13:24:40;27.70;94.40
25468;DHT22;13384;24.794;110.498;2022-09-16T13:27:27;27.70;94.40
25468;DHT22;13384;24.794;110.498;2022-09-16T13:30:28;27.60;94.40
25468;DHT22;13384;24.794;110.498;2022-09-16T13:35:43;27.70;94.60
25468;DHT22;13384;24.794;110.498;2022-09-16T13:38:44;27.70;94.60
25468;DHT22;13384;24.794;110.498;2022-09-16T13:44:28;27.70;94.60
25468;DHT22;13384;24.794;110.498;2022-09-16T13:47:31;27.60;94.60
25468;DHT22;13384;24.794;110.498;2022-09-16T13:50:13;27.70;94.70
25468;DHT22;13384;24.794;110.498;2022-09-16T13:52:46;27.70;94.70
25468;DHT22;13384;24.794;110.498;2022-09-16T13:55:39;27.60;94.70
25468;DHT22;13384;24.794;110.498;2022-09-16T13:58:28;27.70;94.70
25468;DHT22;13384;24.794;110.498;2022-09-16T14:04:49;27.70;94.80
25468;DHT22;13384;24.794;110.498;2022-09-16T14:07:47;27.70;94.90
25468;DHT22;13384;24.794;110.498;2022-09-16T14:10:38;27.70;94.80
25468;DHT22;13384;24.794;110.498;2022-09-16T14:13:20;27.70;94.90
25468;DHT22;13384;24.794;110.498;2022-09-16T14:15:57;27.70;94.90
25468;DHT22;13384;24.794;110.498;2022-09-16T14:18:31;27.70;94.90
25468;DHT22;13384;24.794;110.498;2022-09-16T14:21:14;27.70;94.90
25468;DHT22;13384;24.794;110.498;2022-09-16T14:26:55;27.70;95.00
25468;DHT22;13384;24.794;110.498;2022-09-16T14:29:59;27.60;94.90
25468;DHT22;13384;24.794;110.498;2022-09-16T14:32:35;27.70;95.00
25468;DHT22;13384;24.794;110.498;2022-09-16T14:35:45;27.60;95.00
25468;DHT22;13384;24.794;110.498;2022-09-16T14:39:03;27.60;95.00
25468;DHT22;13384;24.794;110.498;2022-09-16T14:44:50;27.70;95.10
25468;DHT22;13384;24.794;110.498;2022-09-16T14:47:45;27.60;95.20
25468;DHT22;13384;24.794;110.498;2022-09-16T14:50:37;27.60;95.50
25468;DHT22;13384;24.794;110.498;2022-09-16T14:53:55;27.60;95.10
25468;DHT22;13384;24.794;110.498;2022-09-16T14:56:52;27.60;95.20
25468;DHT22;13384;24.794;110.498;2022-09-16T14:59:46;27.60;95.20
25468;DHT22;13384;24.794;110.498;2022-09-16T15:02:52;27.60;95.30
25468;DHT22;13384;24.794;110.498;2022-09-16T15:05:47;27.60;95.40
25468;DHT22;13384;24.794;110.498;2022-09-16T15:08:29;27.60;95.40
25468;DHT22;13384;24.794;110.498;2022-09-16T15:11:27;27.60;95.40
25468;DHT22;13384;24.794;110.498;2022-09-16T15:14:22;27.60;95.40
25468;DHT22;13384;24.794;110.498;2022-09-16T15:17:26;27.60;95.40
25468;DHT22;13384;24.794;110.498;2022-09-16T15:20:24;27.60;95.40
25468;DHT22;13384;24.794;110.498;2022-09-16T15:23:37;27.60;95.40
25468;DHT22;13384;24.794;110.498;2022-09-16T15:26:40;27.60;95.50
25468;DHT22;13384;24.794;110.498;2022-09-16T15:29:31;27.60;95.60
25468;DHT22;13384;24.794;110.498;2022-09-16T15:32:28;27.60;96.00
25468;DHT22;13384;24.794;110.498;2022-09-16T15:35:25;27.50;95.70
25468;DHT22;13384;24.794;110.498;2022-09-16T15:38:10;27.60;95.70
25468;DHT22;13384;24.794;110.498;2022-09-16T15:41:09;27.60;95.70
25468;DHT22;13384;24.794;110.498;2022-09-16T15:43:55;27.60;95.70
25468;DHT22;13384;24.794;110.498;2022-09-16T15:49:53;27.60;96.00
25468;DHT22;13384;24.794;110.498;2022-09-16T15:52:26;27.60;96.20
25468;DHT22;13384;24.794;110.498;2022-09-16T15:55:01;27.60;96.30
25468;DHT22;13384;24.794;110.498;2022-09-16T15:57:41;27.60;96.50
25468;DHT22;13384;24.794;110.498;2022-09-16T16:00:14;27.60;96.20
25468;DHT22;13384;24.794;110.498;2022-09-16T16:02:54;27.60;96.20
25468;DHT22;13384;24.794;110.498;2022-09-16T16:05:29;27.60;95.90
25468;DHT22;13384;24.794;110.498;2022-09-16T16:08:03;27.60;96.70
25468;DHT22;13384;24.794;110.498;2022-09-16T16:10:38;27.60;96.50
25468;DHT22;13384;24.794;110.498;2022-09-16T16:13:10;27.60;96.30
25468;DHT22;13384;24.794;110.498;2022-09-16T16:15:43;27.60;96.10
25468;DHT22;13384;24.794;110.498;2022-09-16T16:18:35;27.60;96.70
25468;DHT22;13384;24.794;110.498;2022-09-16T16:21:17;27.50;96.50
25468;DHT22;13384;24.794;110.498;2022-09-16T16:24:15;27.60;96.40
25468;DHT22;13384;24.794;110.498;2022-09-16T16:26:56;27.50;96.30
25468;DHT22;13384;24.794;110.498;2022-09-16T16:30:09;27.60;96.90
25468;DHT22;13384;24.794;110.498;2022-09-16T16:32:40;27.60;96.70
25468;DHT22;13384;24.794;110.498;2022-09-16T16:35:12;27.50;96.80
25468;DHT22;13384;24.794;110.498;2022-09-16T16:37:45;27.50;96.90
25468;DHT22;13384;24.794;110.498;2022-09-16T16:40:17;27.50;97.30
25468;DHT22;13384;24.794;110.498;2022-09-16T16:42:51;27.50;97.00
25468;DHT22;13384;24.794;110.498;2022-09-16T16:45:23;27.50;97.00
25468;DHT22;13384;24.794;110.498;2022-09-16T16:47:54;27.40;97.20
25468;DHT22;13384;24.794;110.498;2022-09-16T16:50:27;27.40;96.30
25468;DHT22;13384;24.794;110.498;2022-09-16T16:53:18;27.40;96.30
25468;DHT22;13384;24.794;110.498;2022-09-16T16:56:14;27.40;96.90
25468;DHT22;13384;24.794;110.498;2022-09-16T16:58:46;27.40;97.00
25468;DHT22;13384;24.794;110.498;2022-09-16T17:01:18;27.40;97.20
25468;DHT22;13384;24.794;110.498;2022-09-16T17:03:50;27.40;96.70
25468;DHT22;13384;24.794;110.498;2022-09-16T17:06:45;27.40;97.00
25468;DHT22;13384;24.794;110.498;2022-09-16T17:10:15;27.40;96.70
25468;DHT22;13384;24.794;110.498;2022-09-16T17:12:46;27.40;97.10
25468;DHT22;13384;24.794;110.498;2022-09-16T17:15:17;27.40;97.00
25468;DHT22;13384;24.794;110.498;2022-09-16T17:17:49;27.40;97.70
25468;DHT22;13384;24.794;110.498;2022-09-16T17:20:24;27.40;96.40
25468;DHT22;13384;24.794;110.498;2022-09-16T17:23:35;27.40;96.70
25468;DHT22;13384;24.794;110.498;2022-09-16T17:26:08;27.40;96.50
25468;DHT22;13384;24.794;110.498;2022-09-16T17:28:40;27.40;96.80
25468;DHT22;13384;24.794;110.498;2022-09-16T17:31:44;27.40;96.50
25468;DHT22;13384;24.794;110.498;2022-09-16T17:34:36;27.40;96.10
25468;DHT22;13384;24.794;110.498;2022-09-16T17:37:07;27.50;96.20
25468;DHT22;13384;24.794;110.498;2022-09-16T17:39:38;27.50;96.00
25468;DHT22;13384;24.794;110.498;2022-09-16T17:42:13;27.50;96.10
25468;DHT22;13384;24.794;110.498;2022-09-16T17:45:04;27.40;96.50
25468;DHT22;13384;24.794;110.498;2022-09-16T17:47:35;27.40;96.60
25468;DHT22;13384;24.794;110.498;2022-09-16T17:50:07;27.50;97.20
25468;DHT22;13384;24.794;110.498;2022-09-16T17:52:40;27.40;96.30
25468;DHT22;13384;24.794;110.498;2022-09-16T17:55:27;27.40;96.20
25468;DHT22;13384;24.794;110.498;2022-09-16T17:58:24;27.40;96.00
25468;DHT22;13384;24.794;110.498;2022-09-16T18:00:56;27.40;96.00
25468;DHT22;13384;24.794;110.498;2022-09-16T18:03:33;27.40;96.50
25468;DHT22;13384;24.794;110.498;2022-09-16T18:06:07;27.40;96.70
25468;DHT22;13384;24.794;110.498;2022-09-16T18:08:39;27.40;96.30
25468;DHT22;13384;24.794;110.498;2022-09-16T18:11:12;27.40;96.40
25468;DHT22;13384;24.794;110.498;2022-09-16T18:13:44;27.40;96.30
25468;DHT22;13384;24.794;110.498;2022-09-16T18:16:18;27.40;96.20
25468;DHT22;13384;24.794;110.498;2022-09-16T18:18:54;27.40;96.30
25468;DHT22;13384;24.794;110.498;2022-09-16T18:21:33;27.40;96.40
25468;DHT22;13384;24.794;110.498;2022-09-16T18:24:27;27.40;96.20
25468;DHT22;13384;24.794;110.498;2022-09-16T18:27:01;27.40;96.10
25468;DHT22;13384;24.794;110.498;2022-09-16T18:29:32;27.40;96.30
25468;DHT22;13384;24.794;110.498;2022-09-16T18:32:03;27.40;97.10
25468;DHT22;13384;24.794;110.498;2022-09-16T18:34:34;27.40;96.50
25468;DHT22;13384;24.794;110.498;2022-09-16T18:37:05;27.40;96.50
25468;DHT22;13384;24.794;110.498;2022-09-16T18:39:59;27.40;96.70
25468;DHT22;13384;24.794;110.498;2022-09-16T18:42:30;27.40;97.10
25468;DHT22;13384;24.794;110.498;2022-09-16T18:45:01;27.40;96.80
25468;DHT22;13384;24.794;110.498;2022-09-16T18:47:33;27.40;96.50
25468;DHT22;13384;24.794;110.498;2022-09-16T18:50:04;27.40;96.40
25468;DHT22;13384;24.794;110.498;2022-09-16T18:52:46;27.40;96.50
25468;DHT22;13384;24.794;110.498;2022-09-16T18:55:17;27.40;96.50
25468;DHT22;13384;24.794;110.498;2022-09-16T18:57:48;27.40;96.80
25468;DHT22;13384;24.794;110.498;2022-09-16T19:00:21;27.40;96.80
25468;DHT22;13384;24.794;110.498;2022-09-16T19:02:55;27.40;96.50
25468;DHT22;13384;24.794;110.498;2022-09-16T19:05:55;27.40;96.60
25468;DHT22;13384;24.794;110.498;2022-09-16T19:08:26;27.40;96.50
25468;DHT22;13384;24.794;110.498;2022-09-16T19:11:02;27.40;96.60
25468;DHT22;13384;24.794;110.498;2022-09-16T19:13:33;27.40;96.40
25468;DHT22;13384;24.794;110.498;2022-09-16T19:16:08;27.40;96.30
25468;DHT22;13384;24.794;110.498;2022-09-16T19:18:40;27.40;96.50
25468;DHT22;13384;24.794;110.498;2022-09-16T19:21:33;27.40;96.40
25468;DHT22;13384;24.794;110.498;2022-09-16T19:24:25;27.40;96.50
25468;DHT22;13384;24.794;110.498;2022-09-16T19:26:56;27.40;96.50
25468;DHT22;13384;24.794;110.498;2022-09-16T19:29:28;27.40;96.30
25468;DHT22;13384;24.794;110.498;2022-09-16T19:31:59;27.30;96.40
25468;DHT22;13384;24.794;110.498;2022-09-16T19:34:30;27.40;96.40
25468;DHT22;13384;24.794;110.498;2022-09-16T19:37:02;27.40;96.40
25468;DHT22;13384;24.794;110.498;2022-09-16T19:39:33;27.40;96.40